createdAt,value
2022-11-19T00:02:05.604Z,66.70
2022-11-19T00:04:32.483Z,66.60
2022-11-19T00:06:59.442Z,66.60
2022-11-19T00:09:26.474Z,66.40
2022-11-19T00:12:11.891Z,66.40
2022-11-19T00:14:41.304Z,66.30
2022-11-19T00:17:10.464Z,66.20
2022-11-19T00:19:37.370Z,66.20
2022-11-19T00:22:06.444Z,66.10
2022-11-19T00:24:35.425Z,65.90
2022-11-19T00:27:02.259Z,65.90
2022-11-19T00:29:29.353Z,65.90
2022-11-19T00:31:56.196Z,65.90
2022-11-19T00:34:23.041Z,66.70
2022-11-19T00:36:52.022Z,65.90
2022-11-19T00:39:22.212Z,65.90
2022-11-19T00:41:49.248Z,65.90
2022-11-19T00:44:16.128Z,65.90
2022-11-19T00:46:43.280Z,65.80
2022-11-19T00:49:12.550Z,65.70
2022-11-19T00:51:41.954Z,65.80
2022-11-19T00:54:11.337Z,65.90
2022-11-19T00:56:38.278Z,66.00
2022-11-19T00:59:07.669Z,66.00
2022-11-19T01:01:36.690Z,66.10
2022-11-19T01:04:03.856Z,66.20
2022-11-19T01:06:35.581Z,66.40
2022-11-19T01:09:04.952Z,66.50
2022-11-19T01:11:34.891Z,66.60
2022-11-19T01:14:03.125Z,66.70
2022-11-19T01:16:33.857Z,66.80
2022-11-19T01:19:02.826Z,66.90
2022-11-19T01:21:32.723Z,67.00
2022-11-19T01:24:00.441Z,67.10
2022-11-19T01:26:32.436Z,67.20
2022-11-19T01:28:59.856Z,67.10
2022-11-19T01:31:30.150Z,67.10
2022-11-19T01:34:00.231Z,67.10
2022-11-19T01:36:29.487Z,67.10
2022-11-19T01:38:57.423Z,67.00
2022-11-19T01:41:30.932Z,66.90
2022-11-19T01:44:00.266Z,66.90
2022-11-19T01:46:30.750Z,66.80
2022-11-19T01:49:15.042Z,66.80
2022-11-19T01:52:01.147Z,66.80
2022-11-19T01:54:41.623Z,66.80
2022-11-19T01:57:14.979Z,66.80
2022-11-19T01:59:46.002Z,66.80
2022-11-19T02:02:12.948Z,66.80
2022-11-19T02:04:45.525Z,66.90
2022-11-19T02:07:14.046Z,66.90
2022-11-19T02:09:41.308Z,66.90
2022-11-19T02:12:36.561Z,67.00
2022-11-19T02:15:06.247Z,67.00
2022-11-19T02:18:04.018Z,67.00
2022-11-19T02:20:52.569Z,67.00
2022-11-19T02:23:48.367Z,67.00
2022-11-19T02:26:45.295Z,66.90
2022-11-19T02:29:30.460Z,66.90
2022-11-19T02:32:05.525Z,66.80
2022-11-19T02:35:07.671Z,66.80
2022-11-19T02:37:49.984Z,67.50
2022-11-19T02:40:28.235Z,66.60
2022-11-19T02:43:22.527Z,66.50
2022-11-19T02:46:15.180Z,66.50
2022-11-19T02:48:54.752Z,66.50
2022-11-19T02:51:22.476Z,66.60
2022-11-19T02:53:49.306Z,66.60
2022-11-19T02:56:54.089Z,66.50
2022-11-19T03:00:06.789Z,66.50
2022-11-19T03:03:15.239Z,66.60
2022-11-19T03:05:49.747Z,66.60
2022-11-19T03:08:16.991Z,66.70
2022-11-19T03:11:04.297Z,66.70
2022-11-19T03:14:10.103Z,66.60
2022-11-19T03:16:53.550Z,66.60
2022-11-19T03:20:01.422Z,66.70
2022-11-19T03:22:35.228Z,66.70
2022-11-19T03:25:12.628Z,66.90
2022-11-19T03:27:45.585Z,66.90
2022-11-19T03:30:18.523Z,67.00
2022-11-19T03:32:55.101Z,67.00
2022-11-19T03:35:35.949Z,67.10
2022-11-19T03:38:07.652Z,67.20
2022-11-19T03:40:35.623Z,67.20
2022-11-19T03:43:05.676Z,67.10
2022-11-19T03:45:43.008Z,67.00
2022-11-19T03:48:12.754Z,66.90
2022-11-19T03:51:12.521Z,66.90
2022-11-19T03:53:42.136Z,66.80
2022-11-19T03:56:13.070Z,66.90
2022-11-19T03:58:45.866Z,66.80
2022-11-19T04:01:15.989Z,66.80
2022-11-19T04:04:02.874Z,66.70
2022-11-19T04:06:34.367Z,66.60
2022-11-19T04:09:01.187Z,66.60
2022-11-19T04:11:30.386Z,66.60
2022-11-19T04:13:59.441Z,66.50
2022-11-19T04:16:26.293Z,66.50
2022-11-19T04:18:53.342Z,66.50
2022-11-19T04:21:25.299Z,66.40
2022-11-19T04:23:52.170Z,66.40
2022-11-19T04:26:19.071Z,66.40
2022-11-19T04:28:45.892Z,66.50
2022-11-19T04:31:17.997Z,66.50
2022-11-19T04:33:47.924Z,66.60
2022-11-19T04:36:19.736Z,66.70
2022-11-19T04:38:46.612Z,66.80
2022-11-19T04:41:15.697Z,66.80
2022-11-19T04:43:42.637Z,66.90
2022-11-19T04:46:09.510Z,66.90
2022-11-19T04:48:36.372Z,67.00
2022-11-19T04:51:03.237Z,67.10
2022-11-19T04:53:30.115Z,67.20
2022-11-19T04:55:59.192Z,67.30
2022-11-19T04:58:26.051Z,67.30
2022-11-19T05:00:55.218Z,67.40
2022-11-19T05:03:22.130Z,67.40
2022-11-19T05:05:49.016Z,67.40
2022-11-19T05:08:15.888Z,67.50
2022-11-19T05:10:44.454Z,67.50
2022-11-19T05:13:13.972Z,67.50
2022-11-19T05:15:45.422Z,67.60
2022-11-19T05:18:13.471Z,67.50
2022-11-19T05:20:42.825Z,67.60
2022-11-19T05:23:09.640Z,67.60
2022-11-19T05:25:36.577Z,67.60
2022-11-19T05:28:03.541Z,67.60
2022-11-19T05:30:30.559Z,67.60
2022-11-19T05:32:57.570Z,67.60
2022-11-19T05:35:24.481Z,67.70
2022-11-19T05:37:51.504Z,67.70
2022-11-19T05:40:18.671Z,67.60
2022-11-19T05:42:45.735Z,67.60
2022-11-19T05:45:15.131Z,67.60
2022-11-19T05:47:45.986Z,67.50
2022-11-19T05:50:15.628Z,67.60
2022-11-19T05:52:42.585Z,67.50
2022-11-19T05:55:09.560Z,67.50
2022-11-19T05:57:37.068Z,67.50
2022-11-19T06:00:08.051Z,67.50
2022-11-19T06:02:37.282Z,67.40
2022-11-19T06:05:05.214Z,67.40
2022-11-19T06:07:34.616Z,67.40
2022-11-19T06:10:01.560Z,67.40
2022-11-19T06:12:30.879Z,67.40
2022-11-19T06:15:01.982Z,67.50
2022-11-19T06:17:29.266Z,67.50
2022-11-19T06:19:56.240Z,67.50
2022-11-19T06:22:27.739Z,67.60
2022-11-19T06:24:54.642Z,67.60
2022-11-19T06:27:21.572Z,67.50
2022-11-19T06:29:53.526Z,67.50
2022-11-19T06:32:23.578Z,67.50
2022-11-19T06:34:52.838Z,67.60
2022-11-19T06:37:19.679Z,67.60
2022-11-19T06:39:49.037Z,67.60
2022-11-19T06:42:34.379Z,67.70
2022-11-19T06:45:10.821Z,67.70
2022-11-19T06:47:39.372Z,67.60
2022-11-19T06:50:09.093Z,67.60
2022-11-19T06:52:38.287Z,67.60
2022-11-19T06:55:05.833Z,67.60
2022-11-19T06:57:32.742Z,67.60
2022-11-19T07:00:01.756Z,67.50
2022-11-19T07:02:30.845Z,67.60
2022-11-19T07:04:57.762Z,67.50
2022-11-19T07:07:24.783Z,67.50
2022-11-19T07:09:54.042Z,67.50
2022-11-19T07:12:20.865Z,67.60
2022-11-19T07:14:47.830Z,67.50
2022-11-19T07:17:17.084Z,67.50
2022-11-19T07:19:48.482Z,67.50
2022-11-19T07:22:17.415Z,67.50
2022-11-19T07:24:49.369Z,67.50
2022-11-19T07:27:16.922Z,67.40
2022-11-19T07:29:43.858Z,67.50
2022-11-19T07:32:12.846Z,67.50
2022-11-19T07:34:42.437Z,67.50
2022-11-19T07:37:14.050Z,67.50
2022-11-19T07:39:43.356Z,67.60
2022-11-19T07:42:28.509Z,67.70
2022-11-19T07:44:57.417Z,67.70
2022-11-19T07:47:24.370Z,68.60
2022-11-19T07:49:51.355Z,67.80
2022-11-19T07:52:18.498Z,67.80
2022-11-19T07:54:48.358Z,67.80
2022-11-19T07:57:15.296Z,67.90
2022-11-19T07:59:42.244Z,67.90
2022-11-19T08:02:16.485Z,67.80
2022-11-19T08:04:45.773Z,67.90
2022-11-19T08:07:15.714Z,67.80
2022-11-19T08:09:42.775Z,67.80
2022-11-19T08:12:09.816Z,67.80
2022-11-19T08:14:38.898Z,67.70
2022-11-19T08:17:24.192Z,67.70
2022-11-19T08:19:53.679Z,67.70
2022-11-19T08:22:20.538Z,67.60
2022-11-19T08:24:47.477Z,67.50
2022-11-19T08:27:19.657Z,67.50
2022-11-19T08:29:51.294Z,67.60
2022-11-19T08:32:18.067Z,67.60
2022-11-19T08:34:44.952Z,67.60
2022-11-19T08:37:13.610Z,67.70
2022-11-19T08:39:43.186Z,67.70
2022-11-19T08:42:28.966Z,67.80
2022-11-19T08:44:58.658Z,67.90
2022-11-19T08:47:28.122Z,67.90
2022-11-19T08:49:57.799Z,67.80
2022-11-19T08:52:24.691Z,67.70
2022-11-19T08:54:52.093Z,67.60
2022-11-19T08:57:21.021Z,67.50
2022-11-19T08:59:50.333Z,67.50
2022-11-19T09:02:19.682Z,67.50
2022-11-19T09:04:48.854Z,67.60
2022-11-19T09:07:15.797Z,67.60
2022-11-19T09:09:45.170Z,67.60
2022-11-19T09:12:12.196Z,67.70
2022-11-19T09:14:39.079Z,67.60
2022-11-19T09:17:08.475Z,67.50
2022-11-19T09:19:35.436Z,67.50
2022-11-19T09:22:02.345Z,67.50
2022-11-19T09:24:29.274Z,67.40
2022-11-19T09:27:02.516Z,67.30
2022-11-19T09:29:31.592Z,67.20
2022-11-19T09:31:58.816Z,67.10
2022-11-19T09:34:25.725Z,66.90
2022-11-19T09:36:52.646Z,66.90
2022-11-19T09:39:21.850Z,66.90
2022-11-19T09:42:12.095Z,66.80
2022-11-19T09:45:15.914Z,66.80
2022-11-19T09:48:09.371Z,66.80
2022-11-19T09:50:54.346Z,66.90
2022-11-19T09:53:30.353Z,66.80
2022-11-19T09:55:59.190Z,66.80
2022-11-19T09:58:31.237Z,66.80
2022-11-19T10:01:01.403Z,66.80
2022-11-19T10:03:33.164Z,66.80
2022-11-19T10:06:26.178Z,66.80
2022-11-19T10:09:23.798Z,66.70
2022-11-19T10:12:05.479Z,66.50
2022-11-19T10:14:44.428Z,66.70
2022-11-19T10:17:38.114Z,66.80
2022-11-19T10:20:32.328Z,66.70
2022-11-19T10:23:48.544Z,66.80
2022-11-19T10:26:26.933Z,66.80
2022-11-19T10:28:58.445Z,67.00
2022-11-19T10:31:39.264Z,67.00
2022-11-19T10:34:30.381Z,67.00
2022-11-19T10:37:07.502Z,67.00
2022-11-19T10:39:57.760Z,67.10
2022-11-19T10:42:41.450Z,67.00
2022-11-19T10:45:31.570Z,66.70
2022-11-19T10:48:12.410Z,66.80
2022-11-19T10:50:40.211Z,67.00
2022-11-19T10:53:33.143Z,67.00
2022-11-19T10:56:10.035Z,67.20
2022-11-19T10:58:49.256Z,67.10
2022-11-19T11:01:40.254Z,67.20
2022-11-19T11:04:26.309Z,67.10
2022-11-19T11:07:06.984Z,66.90
2022-11-19T11:09:43.046Z,66.90
2022-11-19T11:13:01.903Z,66.80
2022-11-19T11:15:31.338Z,66.80
2022-11-19T11:18:10.069Z,66.70
2022-11-19T11:20:38.925Z,66.40
2022-11-19T11:23:17.628Z,66.40
2022-11-19T11:26:07.365Z,66.30
2022-11-19T11:28:35.479Z,66.20
2022-11-19T11:31:09.939Z,66.10
2022-11-19T11:33:41.506Z,65.90
2022-11-19T11:36:11.861Z,66.00
2022-11-19T11:38:45.570Z,66.10
2022-11-19T11:44:14.476Z,66.00
2022-11-19T11:46:51.148Z,65.90
2022-11-19T11:49:36.145Z,65.90
2022-11-19T11:52:19.957Z,65.60
2022-11-19T11:55:06.743Z,65.60
2022-11-19T11:57:50.788Z,65.50
2022-11-19T12:00:55.660Z,65.60
2022-11-19T12:03:23.774Z,65.30
2022-11-19T12:06:02.440Z,65.50
2022-11-19T12:08:51.029Z,65.30
2022-11-19T12:11:56.009Z,65.10
2022-11-19T12:14:54.876Z,65.00
2022-11-19T12:17:50.363Z,65.30
2022-11-19T12:20:29.406Z,65.30
2022-11-19T12:23:37.180Z,65.40
2022-11-19T12:27:03.733Z,65.50
2022-11-19T12:30:09.412Z,65.30
2022-11-19T12:33:20.165Z,65.40
2022-11-19T12:36:43.482Z,65.50
2022-11-19T12:39:46.752Z,65.30
2022-11-19T12:42:31.070Z,65.40
2022-11-19T12:45:17.483Z,65.40
2022-11-19T12:47:56.118Z,65.40
2022-11-19T12:50:58.235Z,65.30
2022-11-19T12:53:56.226Z,65.20
2022-11-19T12:57:25.529Z,65.10
2022-11-19T13:00:20.228Z,65.20
2022-11-19T13:03:08.830Z,65.30
2022-11-19T13:06:06.977Z,65.30
2022-11-19T13:08:54.836Z,65.30
2022-11-19T13:11:43.422Z,65.40
2022-11-19T13:14:43.197Z,65.40
2022-11-19T13:17:28.822Z,65.30
2022-11-19T13:20:23.402Z,65.10
2022-11-19T13:23:02.319Z,65.00
2022-11-19T13:25:47.711Z,64.80
2022-11-19T13:28:40.749Z,64.60
2022-11-19T13:31:43.687Z,64.20
2022-11-19T13:34:33.298Z,64.10
2022-11-19T13:37:14.932Z,64.20
2022-11-19T13:39:56.167Z,64.20
2022-11-19T13:42:42.796Z,64.00
2022-11-19T13:45:17.694Z,64.20
2022-11-19T13:47:59.386Z,63.90
2022-11-19T13:50:41.886Z,63.70
2022-11-19T13:53:22.495Z,64.00
2022-11-19T13:55:58.369Z,64.20
2022-11-19T13:58:37.817Z,64.20
2022-11-19T14:01:08.667Z,64.40
2022-11-19T14:04:16.532Z,64.30
2022-11-19T14:07:05.316Z,64.00
2022-11-19T14:10:08.663Z,64.10
2022-11-19T14:13:07.741Z,64.00
2022-11-19T14:16:55.878Z,64.00
2022-11-19T14:19:41.683Z,63.80
2022-11-19T14:22:52.982Z,63.90
2022-11-19T14:26:05.145Z,63.60
2022-11-19T14:28:45.409Z,63.70
2022-11-19T14:31:13.649Z,63.90
2022-11-19T14:33:49.263Z,63.90
2022-11-19T14:36:47.733Z,63.70
2022-11-19T14:39:25.422Z,63.30
2022-11-19T14:42:12.447Z,63.70
2022-11-19T14:44:39.388Z,63.60
2022-11-19T14:47:28.621Z,63.80
2022-11-19T14:49:57.555Z,63.80
2022-11-19T14:52:31.118Z,64.00
2022-11-19T14:55:26.687Z,64.10
2022-11-19T14:58:02.106Z,64.00
2022-11-19T15:00:37.453Z,63.90
2022-11-19T15:03:15.629Z,63.70
2022-11-19T15:05:48.198Z,63.70
2022-11-19T15:08:18.323Z,63.60
2022-11-19T15:11:11.356Z,63.50
2022-11-19T15:13:49.526Z,63.30
2022-11-19T15:16:21.850Z,63.40
2022-11-19T15:19:11.053Z,63.50
2022-11-19T15:22:00.381Z,63.40
2022-11-19T15:24:44.598Z,63.50
2022-11-19T15:27:46.668Z,63.50
2022-11-19T15:30:46.368Z,63.40
2022-11-19T15:33:29.723Z,63.50
2022-11-19T15:36:31.791Z,63.60
2022-11-19T15:39:22.317Z,63.40
2022-11-19T15:42:02.210Z,63.60
2022-11-19T15:44:53.850Z,63.60
2022-11-19T15:47:37.362Z,63.50
2022-11-19T15:50:09.327Z,63.60
2022-11-19T15:52:36.268Z,63.60
2022-11-19T15:55:19.567Z,63.60
2022-11-19T15:57:56.064Z,63.60
2022-11-19T16:00:23.612Z,63.70
2022-11-19T16:02:52.831Z,63.80
2022-11-19T16:05:32.642Z,63.80
2022-11-19T16:08:05.549Z,64.60
2022-11-19T16:10:41.069Z,63.70
2022-11-19T16:14:12.768Z,63.70
2022-11-19T16:16:58.469Z,63.60
2022-11-19T16:19:25.338Z,63.80
2022-11-19T16:22:00.966Z,63.90
2022-11-19T16:24:49.554Z,63.80
2022-11-19T16:27:23.676Z,63.90
2022-11-19T16:29:54.160Z,63.30
2022-11-19T16:32:25.049Z,64.10
2022-11-19T16:34:54.462Z,64.10
2022-11-19T16:37:27.369Z,64.20
2022-11-19T16:39:54.368Z,64.20
2022-11-19T16:42:28.990Z,64.30
2022-11-19T16:45:06.941Z,64.20
2022-11-19T16:47:39.585Z,64.30
2022-11-19T16:50:29.132Z,64.20
2022-11-19T16:52:59.588Z,64.30
2022-11-19T16:55:26.455Z,64.30
2022-11-19T16:57:59.094Z,64.20
2022-11-19T17:00:32.147Z,64.10
2022-11-19T17:02:59.249Z,64.10
2022-11-19T17:05:28.663Z,64.10
2022-11-19T17:08:18.440Z,64.20
2022-11-19T17:10:45.569Z,64.30
2022-11-19T17:13:30.744Z,64.30
2022-11-19T17:16:18.273Z,64.30
2022-11-19T17:18:47.419Z,64.30
2022-11-19T17:21:27.556Z,64.40
2022-11-19T17:23:54.655Z,64.50
2022-11-19T17:26:26.612Z,64.50
2022-11-19T17:29:11.397Z,64.60
2022-11-19T17:31:46.475Z,64.60
2022-11-19T17:34:32.389Z,64.70
2022-11-19T17:37:02.039Z,64.50
2022-11-19T17:39:29.016Z,64.50
2022-11-19T17:42:15.450Z,64.40
2022-11-19T17:44:42.633Z,64.30
2022-11-19T17:47:24.337Z,64.20
2022-11-19T17:49:52.503Z,64.10
2022-11-19T17:52:27.157Z,64.10
2022-11-19T17:55:00.652Z,64.00
2022-11-19T17:57:27.706Z,64.10
2022-11-19T17:59:54.748Z,64.10
2022-11-19T18:02:22.347Z,64.10
2022-11-19T18:04:51.820Z,64.10
2022-11-19T18:07:18.868Z,64.10
2022-11-19T18:09:46.004Z,64.10
2022-11-19T18:12:19.998Z,64.20
2022-11-19T18:14:47.594Z,64.20
2022-11-19T18:17:17.391Z,64.40
2022-11-19T18:19:46.795Z,64.60
2022-11-19T18:22:19.037Z,64.70
2022-11-19T18:24:52.702Z,64.80
2022-11-19T18:27:22.598Z,64.80
2022-11-19T18:29:49.570Z,64.80
2022-11-19T18:32:16.994Z,64.90
2022-11-19T18:34:45.720Z,65.00
2022-11-19T18:37:15.374Z,65.10
2022-11-19T18:39:42.438Z,65.20
2022-11-19T18:42:12.154Z,65.10
2022-11-19T18:44:41.648Z,65.10
2022-11-19T18:47:14.045Z,65.10
2022-11-19T18:49:41.832Z,65.10
2022-11-19T18:52:15.232Z,65.10
2022-11-19T18:54:42.534Z,65.10
2022-11-19T18:57:12.908Z,65.20
2022-11-19T18:59:40.015Z,65.30
2022-11-19T19:02:07.119Z,65.30
2022-11-19T19:04:36.152Z,65.30
2022-11-19T19:07:05.629Z,65.30
2022-11-19T19:09:37.773Z,65.30
2022-11-19T19:12:19.633Z,65.20
2022-11-19T19:14:51.639Z,65.30
2022-11-19T19:17:19.740Z,65.40
2022-11-19T19:19:46.950Z,65.40
2022-11-19T19:22:13.982Z,65.50
2022-11-19T19:24:41.045Z,65.60
2022-11-19T19:27:08.001Z,65.60
2022-11-19T19:29:37.594Z,65.60
2022-11-19T19:32:04.966Z,65.60
2022-11-19T19:34:31.999Z,65.60
2022-11-19T19:36:58.983Z,65.50
2022-11-19T19:39:26.261Z,65.40
2022-11-19T19:41:56.199Z,65.40
2022-11-19T19:44:23.140Z,65.30
2022-11-19T19:46:52.640Z,65.30
2022-11-19T19:49:24.335Z,65.30
2022-11-19T19:51:51.561Z,65.30
2022-11-19T19:54:18.501Z,65.20
2022-11-19T19:56:45.442Z,65.20
2022-11-19T19:59:13.852Z,65.20
2022-11-19T20:01:44.304Z,65.10
2022-11-19T20:04:11.800Z,65.10
2022-11-19T20:06:46.373Z,65.10
2022-11-19T20:09:16.582Z,65.10
2022-11-19T20:11:45.929Z,65.10
2022-11-19T20:14:13.008Z,65.00
2022-11-19T20:16:43.625Z,65.00
2022-11-19T20:19:16.211Z,65.10
2022-11-19T20:21:47.195Z,65.00
2022-11-19T20:24:14.260Z,65.00
2022-11-19T20:26:42.740Z,65.10
2022-11-19T20:29:14.754Z,64.90
2022-11-19T20:31:47.190Z,64.90
2022-11-19T20:34:17.835Z,65.00
2022-11-19T20:36:44.834Z,65.00
2022-11-19T20:39:16.341Z,65.00
2022-11-19T20:42:03.972Z,65.10
2022-11-19T20:44:31.053Z,65.00
2022-11-19T20:47:02.397Z,65.00
2022-11-19T20:49:35.306Z,65.00
2022-11-19T20:52:03.261Z,65.10
2022-11-19T20:54:31.654Z,65.00
2022-11-19T20:57:03.833Z,65.10
2022-11-19T20:59:31.308Z,65.10
2022-11-19T21:02:00.447Z,65.10
2022-11-19T21:04:36.271Z,65.20
2022-11-19T21:07:04.645Z,65.30
2022-11-19T21:09:34.016Z,65.30
2022-11-19T21:12:02.023Z,65.30
2022-11-19T21:14:28.972Z,65.20
2022-11-19T21:16:58.091Z,65.10
2022-11-19T21:19:28.070Z,65.00
2022-11-19T21:21:54.954Z,64.90
2022-11-19T21:24:21.947Z,64.80
2022-11-19T21:26:49.112Z,64.80
2022-11-19T21:29:18.575Z,64.80
2022-11-19T21:31:49.063Z,64.70
2022-11-19T21:34:22.065Z,64.80
2022-11-19T21:36:52.966Z,64.90
2022-11-19T21:39:20.377Z,64.80
2022-11-19T21:41:47.779Z,64.90
2022-11-19T21:44:19.906Z,64.90
2022-11-19T21:46:50.836Z,64.90
2022-11-19T21:49:21.146Z,64.90
2022-11-19T21:51:49.011Z,64.90
2022-11-19T21:54:18.922Z,64.90
2022-11-19T21:56:48.299Z,64.80
2022-11-19T21:59:15.287Z,64.80
2022-11-19T22:01:43.390Z,64.80
2022-11-19T22:04:13.670Z,64.80
2022-11-19T22:06:41.692Z,64.80
2022-11-19T22:09:08.890Z,64.80
2022-11-19T22:11:35.872Z,64.70
2022-11-19T22:14:08.727Z,64.70
2022-11-19T22:16:40.470Z,64.70
2022-11-19T22:19:07.529Z,64.60
2022-11-19T22:21:37.831Z,64.70
2022-11-19T22:24:05.196Z,64.80
2022-11-19T22:26:34.713Z,64.90
2022-11-19T22:29:04.266Z,65.00
2022-11-19T22:31:32.905Z,65.00
2022-11-19T22:33:59.803Z,65.90
2022-11-19T22:36:34.869Z,65.10
2022-11-19T22:39:06.778Z,65.20
2022-11-19T22:41:34.756Z,65.20
2022-11-19T22:44:02.160Z,65.30
2022-11-19T22:46:29.223Z,65.30
2022-11-19T22:48:58.488Z,65.30
2022-11-19T22:51:28.871Z,65.40
2022-11-19T22:53:56.589Z,65.40
2022-11-19T22:56:29.761Z,65.40
2022-11-19T22:58:57.679Z,65.40
2022-11-19T23:01:28.749Z,65.40
2022-11-19T23:03:57.386Z,65.40
2022-11-19T23:06:25.562Z,65.50
2022-11-19T23:08:58.454Z,65.50
2022-11-19T23:11:45.089Z,65.60
2022-11-19T23:14:20.653Z,65.60
2022-11-19T23:16:49.009Z,65.50
2022-11-19T23:19:22.292Z,65.30
2022-11-19T23:21:50.542Z,65.20
2022-11-19T23:24:17.654Z,65.10
2022-11-19T23:26:47.618Z,65.20
2022-11-19T23:29:17.220Z,65.10
2022-11-19T23:31:47.204Z,65.10
2022-11-19T23:34:15.595Z,65.20
2022-11-19T23:36:42.919Z,65.30
2022-11-19T23:39:15.793Z,65.90
2022-11-19T23:41:43.116Z,65.40
2022-11-19T23:44:13.169Z,65.40
2022-11-19T23:46:43.849Z,65.40
2022-11-19T23:49:11.342Z,65.40
2022-11-19T23:51:38.965Z,65.40
2022-11-19T23:54:07.665Z,66.30
2022-11-19T23:56:37.361Z,65.40
2022-11-19T23:59:06.053Z,65.40
